Time;durP1;ratioP1;P1;durP2;ratioP2;P2;SDS_P1;SDS_P2;PMS_P1;PMS_P2;Temp;Humidity;BMP_temperature;BMP_pressure;BME280_temperature;BME280_humidity;BME280_pressure;Samples;Min_cycle;Max_cycle;Signal;HPM_P1;HPM_P2
2021/04/03 00:00:52;;;;;;;7.85;3.30;;;11.20;49.90;;;;;;1490061;39;20099;-55
2021/04/03 00:02:14;;;;;;;8.55;3.47;;;11.20;50.10;;;;;;1490854;39;20146;-57
2021/04/03 00:03:35;;;;;;;11.15;3.70;;;11.20;50.00;;;;;;1490619;39;20067;-56
2021/04/03 00:04:55;;;;;;;10.27;3.65;;;11.20;50.00;;;;;;1486536;40;20145;-57
2021/04/03 00:06:16;;;;;;;8.35;3.50;;;11.20;50.10;;;;;;1488671;39;20137;-59
2021/04/03 00:07:38;;;;;;;8.25;3.70;;;11.20;50.10;;;;;;1490756;39;20052;-54
2021/04/03 00:08:59;;;;;;;7.55;3.70;;;11.20;50.20;;;;;;1489718;39;20064;-56
2021/04/03 00:10:27;;;;;;;10.10;3.83;;;11.20;50.10;;;;;;1490441;39;20075;-56
2021/04/03 00:11:47;;;;;;;9.95;4.57;;;11.20;50.30;;;;;;1490011;39;20151;-56
2021/04/03 00:13:09;;;;;;;8.40;3.50;;;11.20;50.10;;;;;;1491108;39;20109;-55
2021/04/03 00:14:30;;;;;;;9.15;3.55;;;11.10;50.10;;;;;;1490873;39;20102;-56
2021/04/03 00:15:51;;;;;;;7.45;3.58;;;11.10;50.10;;;;;;1489910;39;20064;-56
2021/04/03 00:17:12;;;;;;;8.90;3.35;;;11.10;50.00;;;;;;1491009;39;20101;-56
2021/04/03 00:18:33;;;;;;;7.20;3.55;;;11.10;49.90;;;;;;1490287;39;20190;-57
2021/04/03 00:19:55;;;;;;;11.50;3.78;;;11.10;49.90;;;;;;1490555;39;20611;-56
2021/04/03 00:21:16;;;;;;;10.00;3.95;;;11.10;49.80;;;;;;1490301;39;20087;-57
2021/04/03 00:22:37;;;;;;;12.93;3.70;;;11.10;49.80;;;;;;1487669;39;20158;-57
2021/04/03 00:23:58;;;;;;;8.40;3.42;;;11.10;49.70;;;;;;1489451;39;20068;-56
2021/04/03 00:25:19;;;;;;;7.30;3.03;;;11.10;49.80;;;;;;1490438;39;20158;-57
2021/04/03 00:26:40;;;;;;;7.18;3.60;;;11.10;49.60;;;;;;1489600;39;20384;-57
2021/04/03 00:28:01;;;;;;;10.32;3.90;;;11.10;49.60;;;;;;1490953;39;20146;-55
2021/04/03 00:29:22;;;;;;;8.18;3.22;;;11.10;49.60;;;;;;1490185;39;20662;-57
2021/04/03 00:30:43;;;;;;;9.63;3.83;;;11.10;49.60;;;;;;1486915;39;20470;-57
2021/04/03 00:32:04;;;;;;;11.35;3.33;;;11.10;49.70;;;;;;1488726;39;20101;-57
2021/04/03 00:33:25;;;;;;;6.28;3.08;;;11.10;49.60;;;;;;1486324;39;20152;-56
2021/04/03 00:34:46;;;;;;;8.15;3.45;;;11.10;49.60;;;;;;1490032;39;20056;-55
2021/04/03 00:36:07;;;;;;;8.60;3.35;;;11.10;49.70;;;;;;1488837;39;20064;-57
2021/04/03 00:37:28;;;;;;;7.72;3.70;;;11.10;49.80;;;;;;1490310;39;20071;-57
2021/04/03 00:38:49;;;;;;;9.75;3.60;;;11.10;50.30;;;;;;1490285;39;20095;-56
2021/04/03 00:40:19;;;;;;;8.05;3.85;;;11.10;49.80;;;;;;1490603;39;20052;-56
2021/04/03 00:41:39;;;;;;;10.45;3.72;;;11.10;50.20;;;;;;1490570;39;20178;-55
2021/04/03 00:43:08;;;;;;;8.93;3.53;;;11.10;49.90;;;;;;1490470;39;20052;-57
2021/04/03 00:44:29;;;;;;;10.55;3.70;;;11.20;50.10;;;;;;1487431;39;20169;-57
2021/04/03 00:45:51;;;;;;;7.68;3.50;;;11.10;50.30;;;;;;1488934;39;20064;-57
2021/04/03 00:47:13;;;;;;;9.98;3.60;;;11.10;50.00;;;;;;1486492;39;20099;-55
2021/04/03 00:48:34;;;;;;;10.27;3.78;;;11.10;50.10;;;;;;1486411;39;20180;-56
2021/04/03 00:49:55;;;;;;;6.78;3.40;;;11.10;50.10;;;;;;1490487;39;20472;-56
2021/04/03 00:51:16;;;;;;;8.70;3.60;;;11.10;50.10;;;;;;1483575;39;20057;-56
2021/04/03 00:52:37;;;;;;;10.07;3.67;;;11.10;50.10;;;;;;1489188;39;20055;-56
2021/04/03 00:53:58;;;;;;;10.13;3.47;;;11.10;50.20;;;;;;1490328;39;20075;-55
2021/04/03 00:55:20;;;;;;;8.93;3.85;;;11.10;50.30;;;;;;1489917;39;20454;-55
2021/04/03 00:56:41;;;;;;;7.55;3.40;;;11.10;50.40;;;;;;1488733;39;20253;-56
2021/04/03 00:58:02;;;;;;;10.25;3.58;;;11.10;50.40;;;;;;1490919;39;20052;-57
2021/04/03 00:59:23;;;;;;;9.60;3.45;;;11.10;50.50;;;;;;1489944;39;20060;-56
2021/04/03 01:00:46;;;;;;;9.02;3.47;;;11.10;50.50;;;;;;1485650;39;20273;-56
2021/04/03 01:02:06;;;;;;;6.88;3.47;;;11.10;50.50;;;;;;1484301;40;20167;-57
2021/04/03 01:03:28;;;;;;;9.77;3.67;;;11.10;50.40;;;;;;1486908;39;20063;-56
2021/04/03 01:04:49;;;;;;;10.88;3.45;;;11.10;50.30;;;;;;1488812;39;20147;-56
2021/04/03 01:06:10;;;;;;;9.02;3.55;;;11.10;50.30;;;;;;1489859;39;20056;-57
2021/04/03 01:07:31;;;;;;;9.77;3.70;;;11.10;50.30;;;;;;1489511;39;20067;-57
2021/04/03 01:08:52;;;;;;;10.13;3.50;;;11.10;50.20;;;;;;1489527;39;20141;-56
2021/04/03 01:10:15;;;;;;;9.98;3.83;;;11.10;50.10;;;;;;1490180;39;20084;-56
2021/04/03 01:11:42;;;;;;;7.82;3.60;;;11.10;50.20;;;;;;1490043;39;20146;-55
2021/04/03 01:13:32;;;;;;;10.00;3.10;;;11.10;50.10;;;;;;1489920;39;20467;-56
2021/04/03 01:15:16;;;;;;;10.63;3.92;;;11.10;50.30;;;;;;1484063;40;20048;-57
2021/04/03 01:16:38;;;;;;;6.82;3.35;;;11.10;50.10;;;;;;1488807;39;20056;-56
2021/04/03 01:18:16;;;;;;;10.20;3.63;;;11.10;49.80;;;;;;1490152;39;20160;-56
2021/04/03 01:20:17;;;;;;;7.80;3.30;;;11.10;50.00;;;;;;1487870;39;20060;-54
2021/04/03 01:21:57;;;;;;;10.10;3.58;;;11.10;50.00;;;;;;1489618;39;20075;-58
2021/04/03 01:24:01;;;;;;;8.27;3.47;;;11.10;50.00;;;;;;1489893;39;20054;-57
2021/04/03 01:25:44;;;;;;;8.32;3.10;;;11.10;50.00;;;;;;1485645;39;20071;-57
2021/04/03 01:27:20;;;;;;;11.55;3.47;;;11.10;50.20;;;;;;1489610;39;20071;-57
2021/04/03 01:28:53;;;;;;;7.60;3.08;;;11.10;50.70;;;;;;1487761;39;20319;-57
2021/04/03 01:30:19;;;;;;;8.05;3.05;;;11.10;50.50;;;;;;1489516;39;20148;-57
2021/04/03 01:31:41;;;;;;;11.25;3.00;;;11.10;50.50;;;;;;1483021;39;20460;-57
2021/04/03 01:33:10;;;;;;;8.70;3.25;;;11.00;50.30;;;;;;1483736;40;20170;-57
2021/04/03 01:34:32;;;;;;;10.05;3.58;;;11.00;51.00;;;;;;1489294;39;20152;-56
2021/04/03 01:36:02;;;;;;;9.52;3.85;;;10.90;50.90;;;;;;1489326;39;20083;-57
2021/04/03 01:37:25;;;;;;;6.80;3.20;;;10.90;51.10;;;;;;1490727;39;20310;-56
2021/04/03 01:38:53;;;;;;;10.60;3.53;;;10.90;51.00;;;;;;1490628;39;20151;-57
2021/04/03 01:40:17;;;;;;;10.55;3.30;;;10.90;51.40;;;;;;1490543;39;20111;-55
2021/04/03 01:41:41;;;;;;;7.63;3.50;;;10.80;51.20;;;;;;1489319;39;20074;-56
2021/04/03 01:43:09;;;;;;;7.03;3.25;;;10.80;51.30;;;;;;1483468;40;20073;-58
2021/04/03 01:44:47;;;;;;;6.95;2.80;;;10.80;51.40;;;;;;1486637;39;20067;-58
2021/04/03 01:46:09;;;;;;;7.35;2.95;;;10.80;51.50;;;;;;1489714;39;20109;-57
2021/04/03 01:47:33;;;;;;;11.63;3.38;;;10.80;51.30;;;;;;1490449;39;20056;-57
2021/04/03 01:48:57;;;;;;;12.07;3.97;;;10.80;51.30;;;;;;1489886;39;20060;-57
2021/04/03 01:50:19;;;;;;;7.82;2.88;;;10.70;51.70;;;;;;1490898;39;20079;-58
2021/04/03 01:51:42;;;;;;;11.68;3.17;;;10.70;51.30;;;;;;1489355;39;20083;-57
2021/04/03 01:53:04;;;;;;;9.63;3.53;;;10.70;51.30;;;;;;1489609;39;20083;-58
2021/04/03 01:54:28;;;;;;;9.55;3.25;;;10.70;51.40;;;;;;1490181;39;20444;-57
2021/04/03 01:55:54;;;;;;;8.38;3.05;;;10.70;51.60;;;;;;1489125;39;20056;-58
2021/04/03 01:57:16;;;;;;;7.88;3.20;;;10.60;51.50;;;;;;1489989;39;20070;-58
2021/04/03 01:58:38;;;;;;;9.80;2.95;;;10.60;51.40;;;;;;1487076;39;20052;-58
2021/04/03 01:59:59;;;;;;;7.32;3.28;;;10.60;51.50;;;;;;1490259;39;20091;-56
2021/04/03 02:01:20;;;;;;;11.40;3.60;;;10.60;51.50;;;;;;1490324;39;20142;-58
2021/04/03 02:02:43;;;;;;;11.60;4.15;;;10.50;51.50;;;;;;1487833;39;20196;-57
2021/04/03 02:04:05;;;;;;;11.07;3.42;;;10.60;51.60;;;;;;1490226;39;20363;-56
2021/04/03 02:05:27;;;;;;;10.63;4.00;;;10.50;52.20;;;;;;1486201;39;20203;-57
2021/04/03 02:06:48;;;;;;;7.57;2.95;;;10.60;51.60;;;;;;1489027;39;20060;-58
2021/04/03 02:08:13;;;;;;;9.10;2.70;;;10.50;51.40;;;;;;1489959;39;20060;-57
2021/04/03 02:09:34;;;;;;;8.10;3.22;;;10.60;51.50;;;;;;1489487;39;20052;-56
2021/04/03 02:11:02;;;;;;;7.93;3.17;;;10.50;51.40;;;;;;1489544;39;20064;-56
2021/04/03 02:12:24;;;;;;;10.70;3.13;;;10.50;51.50;;;;;;1488952;39;20355;-56
2021/04/03 02:13:45;;;;;;;10.63;3.15;;;10.50;51.30;;;;;;1488218;39;20175;-58
2021/04/03 02:15:09;;;;;;;9.77;3.13;;;10.50;51.30;;;;;;1489526;39;20060;-57
2021/04/03 02:16:32;;;;;;;8.88;2.65;;;10.50;51.20;;;;;;1489877;39;20284;-56
2021/04/03 02:17:56;;;;;;;10.55;2.83;;;10.50;51.30;;;;;;1490166;39;20076;-59
2021/04/03 02:19:18;;;;;;;7.93;3.42;;;10.50;51.30;;;;;;1485720;40;20063;-56
2021/04/03 02:20:40;;;;;;;6.90;2.88;;;10.50;51.30;;;;;;1487427;39;20640;-56
2021/04/03 02:22:02;;;;;;;5.93;2.70;;;10.50;51.20;;;;;;1490438;39;20051;-57
2021/04/03 02:23:25;;;;;;;9.35;3.45;;;10.50;51.30;;;;;;1489966;39;20075;-57
2021/04/03 02:24:46;;;;;;;8.25;3.13;;;10.50;51.20;;;;;;1488000;39;20289;-55
2021/04/03 02:26:07;;;;;;;9.90;2.90;;;10.50;51.20;;;;;;1488775;39;20071;-58
2021/04/03 02:27:28;;;;;;;7.97;2.78;;;10.50;51.10;;;;;;1487769;39;20083;-56
2021/04/03 02:28:53;;;;;;;8.93;3.28;;;10.50;51.10;;;;;;1490220;39;20068;-57
2021/04/03 02:30:18;;;;;;;11.60;2.40;;;10.40;51.00;;;;;;1489985;39;20633;-56
2021/04/03 02:31:39;;;;;;;10.35;2.63;;;10.50;50.90;;;;;;1487823;39;20060;-57
2021/04/03 02:33:00;;;;;;;7.40;2.70;;;10.50;51.40;;;;;;1489864;39;20076;-56
2021/04/03 02:34:21;;;;;;;9.15;2.90;;;10.50;51.30;;;;;;1490251;39;20077;-57
2021/04/03 02:35:42;;;;;;;9.27;2.95;;;10.50;50.70;;;;;;1489782;39;20084;-57
2021/04/03 02:37:03;;;;;;;5.00;2.25;;;10.50;50.60;;;;;;1490479;39;20292;-56
2021/04/03 02:38:24;;;;;;;9.00;2.40;;;10.40;50.50;;;;;;1488906;39;20070;-57
2021/04/03 02:39:45;;;;;;;8.77;2.33;;;10.40;50.60;;;;;;1490515;39;20362;-56
2021/04/03 02:41:07;;;;;;;6.65;2.60;;;10.40;50.50;;;;;;1489204;39;20261;-57
2021/04/03 02:42:29;;;;;;;9.70;2.65;;;10.50;50.60;;;;;;1490333;39;20220;-57
2021/04/03 02:44:00;;;;;;;9.45;2.63;;;10.40;50.40;;;;;;1489301;39;20068;-57
2021/04/03 02:45:24;;;;;;;6.57;2.50;;;10.40;50.40;;;;;;1488080;39;20056;-58
2021/04/03 02:46:52;;;;;;;8.55;2.60;;;10.50;50.40;;;;;;1487987;39;20371;-58
2021/04/03 02:48:17;;;;;;;9.02;2.80;;;10.50;50.40;;;;;;1489998;39;20080;-57
2021/04/03 02:49:42;;;;;;;8.40;2.80;;;10.50;50.30;;;;;;1488155;39;20350;-55
2021/04/03 02:51:04;;;;;;;12.40;2.65;;;10.50;50.20;;;;;;1484431;40;20084;-57
2021/04/03 02:52:28;;;;;;;11.35;2.47;;;10.40;50.00;;;;;;1484900;39;20099;-56
2021/04/03 02:53:51;;;;;;;7.15;2.00;;;10.50;50.20;;;;;;1489989;39;20336;-54
2021/04/03 02:55:13;;;;;;;8.38;2.60;;;10.40;50.00;;;;;;1489562;39;20051;-58
2021/04/03 02:56:39;;;;;;;7.90;2.25;;;10.40;49.90;;;;;;1487696;39;20053;-57
2021/04/03 02:58:01;;;;;;;10.82;2.58;;;10.40;49.90;;;;;;1489286;39;20060;-57
2021/04/03 02:59:29;;;;;;;12.13;3.03;;;10.50;49.80;;;;;;1490208;39;20075;-55
2021/04/03 03:00:53;;;;;;;9.85;2.30;;;10.40;49.80;;;;;;1489842;39;20060;-58
2021/04/03 03:02:17;;;;;;;6.10;2.15;;;10.40;49.70;;;;;;1490124;39;20166;-57
2021/04/03 03:03:43;;;;;;;8.73;2.50;;;10.40;49.70;;;;;;1487110;39;20386;-57
2021/04/03 03:05:06;;;;;;;11.65;2.65;;;10.40;49.80;;;;;;1489817;39;20060;-57
2021/04/03 03:06:31;;;;;;;6.70;2.15;;;10.50;49.80;;;;;;1487210;39;20060;-58
2021/04/03 03:07:54;;;;;;;10.30;2.55;;;10.50;49.80;;;;;;1489948;39;20063;-57
2021/04/03 03:09:17;;;;;;;9.00;2.08;;;10.50;49.80;;;;;;1489908;39;20145;-56
2021/04/03 03:10:38;;;;;;;5.28;2.35;;;10.50;49.70;;;;;;1486907;39;20392;-57
2021/04/03 03:11:59;;;;;;;12.27;2.75;;;10.50;49.60;;;;;;1490298;39;20060;-57
2021/04/03 03:13:21;;;;;;;10.60;3.20;;;10.50;49.50;;;;;;1488593;39;20519;-58
2021/04/03 03:14:44;;;;;;;6.97;2.60;;;10.50;49.50;;;;;;1489923;39;20067;-56
2021/04/03 03:16:06;;;;;;;8.77;2.35;;;10.50;49.50;;;;;;1489485;39;20051;-57
2021/04/03 03:17:28;;;;;;;8.15;2.17;;;10.50;49.50;;;;;;1486408;40;20052;-57
2021/04/03 03:18:50;;;;;;;9.88;2.42;;;10.50;49.40;;;;;;1483090;40;20299;-58
2021/04/03 03:20:13;;;;;;;8.88;2.67;;;10.50;49.40;;;;;;1488173;39;20092;-58
2021/04/03 03:21:36;;;;;;;6.82;2.80;;;10.50;49.30;;;;;;1484584;39;20060;-57
2021/04/03 03:22:58;;;;;;;7.80;2.35;;;10.50;49.30;;;;;;1486228;40;20102;-58
2021/04/03 03:24:19;;;;;;;6.85;2.28;;;10.50;49.30;;;;;;1489179;39;20071;-57
2021/04/03 03:25:40;;;;;;;10.27;2.70;;;10.50;49.30;;;;;;1489866;39;20417;-57
2021/04/03 03:27:03;;;;;;;6.78;2.33;;;10.50;49.30;;;;;;1488515;39;20074;-58
2021/04/03 03:28:26;;;;;;;10.25;2.40;;;10.50;49.20;;;;;;1489062;39;20169;-58
2021/04/03 03:29:47;;;;;;;9.43;2.58;;;10.50;49.20;;;;;;1486423;39;20056;-56
2021/04/03 03:31:08;;;;;;;5.90;2.20;;;10.50;49.60;;;;;;1483483;39;20076;-58
2021/04/03 03:32:30;;;;;;;7.80;1.83;;;10.50;49.00;;;;;;1486890;39;20056;-58
2021/04/03 03:33:51;;;;;;;8.25;2.10;;;10.50;49.00;;;;;;1487984;39;20062;-57
2021/04/03 03:35:14;;;;;;;8.32;2.40;;;10.50;49.10;;;;;;1488607;39;20471;-56
2021/04/03 03:36:36;;;;;;;8.15;2.65;;;10.50;49.10;;;;;;1490819;39;20285;-56
2021/04/03 03:37:58;;;;;;;9.75;2.60;;;10.50;49.10;;;;;;1489788;39;20056;-56
2021/04/03 03:39:20;;;;;;;6.45;2.22;;;10.50;49.10;;;;;;1488317;39;20194;-56
2021/04/03 03:40:41;;;;;;;9.00;2.13;;;10.60;49.10;;;;;;1484869;39;20097;-56
2021/04/03 03:42:03;;;;;;;10.27;2.53;;;10.50;49.00;;;;;;1490357;39;20369;-55
2021/04/03 03:43:24;;;;;;;7.18;2.40;;;10.50;49.10;;;;;;1490203;39;20075;-57
2021/04/03 03:44:46;;;;;;;9.35;2.30;;;10.50;49.10;;;;;;1491070;39;20087;-57
2021/04/03 03:46:07;;;;;;;5.22;2.40;;;10.50;49.10;;;;;;1489800;39;20095;-57
2021/04/03 03:47:28;;;;;;;10.57;2.80;;;10.50;49.10;;;;;;1483302;40;20446;-58
2021/04/03 03:48:49;;;;;;;8.73;2.50;;;10.50;49.10;;;;;;1484759;40;20084;-57
2021/04/03 03:50:11;;;;;;;10.13;2.58;;;10.50;49.20;;;;;;1488317;39;20363;-58
2021/04/03 03:51:32;;;;;;;8.07;2.17;;;10.50;49.20;;;;;;1490101;39;20165;-57
2021/04/03 03:52:53;;;;;;;8.20;2.33;;;10.50;49.20;;;;;;1489870;39;20062;-56
2021/04/03 03:54:14;;;;;;;7.78;2.33;;;10.50;49.20;;;;;;1490368;39;20079;-57
2021/04/03 03:55:35;;;;;;;10.65;2.55;;;10.50;49.10;;;;;;1487392;39;20229;-57
2021/04/03 03:56:56;;;;;;;7.47;2.42;;;10.50;49.20;;;;;;1490411;39;20056;-56
2021/04/03 03:58:17;;;;;;;5.32;2.30;;;10.50;49.20;;;;;;1489699;39;20465;-56
2021/04/03 03:59:37;;;;;;;6.22;2.17;;;10.50;49.10;;;;;;1488386;39;20068;-57
2021/04/03 04:00:58;;;;;;;10.77;2.70;;;10.50;49.10;;;;;;1488826;39;20070;-56
2021/04/03 04:02:19;;;;;;;10.02;2.78;;;10.50;49.20;;;;;;1490401;39;20356;-58
2021/04/03 04:03:40;;;;;;;7.82;2.60;;;10.50;49.20;;;;;;1487838;39;20177;-57
2021/04/03 04:05:01;;;;;;;9.80;2.50;;;10.50;49.10;;;;;;1490222;39;20104;-57
2021/04/03 04:06:22;;;;;;;9.25;2.53;;;10.50;49.20;;;;;;1489547;39;20087;-56
2021/04/03 04:07:43;;;;;;;8.20;2.30;;;10.50;49.10;;;;;;1490378;39;20149;-57
2021/04/03 04:09:05;;;;;;;10.43;2.97;;;10.50;49.00;;;;;;1490111;39;20052;-56
2021/04/03 04:10:26;;;;;;;7.32;2.10;;;10.50;49.00;;;;;;1488824;39;20106;-56
2021/04/03 04:11:47;;;;;;;10.18;2.47;;;10.50;49.00;;;;;;1485706;40;20048;-57
2021/04/03 04:13:08;;;;;;;9.15;2.30;;;10.50;49.00;;;;;;1487682;39;20064;-57
2021/04/03 04:14:33;;;;;;;6.78;2.30;;;10.50;48.90;;;;;;1489843;39;20154;-57
2021/04/03 04:15:54;;;;;;;8.45;2.00;;;10.50;49.00;;;;;;1489581;39;20336;-56
2021/04/03 04:17:15;;;;;;;11.40;2.25;;;10.60;49.00;;;;;;1490339;39;20095;-57
2021/04/03 04:18:36;;;;;;;12.98;2.78;;;10.50;48.90;;;;;;1488068;39;20055;-58
2021/04/03 04:19:57;;;;;;;9.55;2.28;;;10.60;48.90;;;;;;1482367;40;20055;-58
2021/04/03 04:21:18;;;;;;;5.20;1.90;;;10.60;48.80;;;;;;1484035;40;20072;-57
2021/04/03 04:22:39;;;;;;;7.28;2.13;;;10.60;48.80;;;;;;1488035;39;20152;-58
2021/04/03 04:24:00;;;;;;;9.20;2.88;;;10.60;48.90;;;;;;1486782;39;20242;-58
2021/04/03 04:25:21;;;;;;;9.80;2.30;;;10.60;48.90;;;;;;1486814;39;20084;-56
2021/04/03 04:26:42;;;;;;;10.32;2.78;;;10.60;48.80;;;;;;1489021;39;20056;-57
2021/04/03 04:28:03;;;;;;;9.02;2.78;;;10.60;48.70;;;;;;1490330;39;20044;-59
2021/04/03 04:29:24;;;;;;;8.43;2.72;;;10.60;48.80;;;;;;1485995;39;20155;-58
2021/04/03 04:30:45;;;;;;;7.18;2.33;;;10.60;48.80;;;;;;1484813;39;20063;-58
2021/04/03 04:32:06;;;;;;;5.43;2.28;;;10.60;49.30;;;;;;1487584;39;20054;-58
2021/04/03 04:33:27;;;;;;;8.93;2.35;;;10.60;48.80;;;;;;1490135;39;20396;-55
2021/04/03 04:34:48;;;;;;;7.43;2.55;;;10.60;49.30;;;;;;1490322;39;20091;-57
2021/04/03 04:36:09;;;;;;;9.98;2.55;;;10.60;48.80;;;;;;1489418;39;20064;-56
2021/04/03 04:37:30;;;;;;;9.02;2.60;;;10.60;48.80;;;;;;1489446;39;20605;-55
2021/04/03 04:38:51;;;;;;;8.73;2.25;;;10.60;49.40;;;;;;1486331;39;20387;-56
2021/04/03 04:40:13;;;;;;;8.90;2.40;;;10.60;48.90;;;;;;1484929;40;20061;-54
2021/04/03 04:41:34;;;;;;;9.00;2.30;;;10.60;48.80;;;;;;1485984;40;20049;-56
2021/04/03 04:42:57;;;;;;;9.07;2.35;;;10.60;48.70;;;;;;1487184;39;20176;-55
2021/04/03 04:44:18;;;;;;;6.13;2.78;;;10.60;48.70;;;;;;1488754;39;20389;-55
2021/04/03 04:45:39;;;;;;;9.05;2.20;;;10.60;48.70;;;;;;1484596;40;20908;-58
2021/04/03 04:47:00;;;;;;;9.73;2.50;;;10.60;48.60;;;;;;1483472;40;20064;-56
2021/04/03 04:48:21;;;;;;;7.18;2.30;;;10.70;48.60;;;;;;1482311;40;20066;-56
2021/04/03 04:49:42;;;;;;;10.43;2.45;;;10.60;48.60;;;;;;1487403;39;20414;-58
2021/04/03 04:51:04;;;;;;;7.97;2.40;;;10.60;48.50;;;;;;1486898;39;20114;-56
2021/04/03 04:52:25;;;;;;;6.45;2.40;;;10.60;48.50;;;;;;1486673;39;20276;-58
2021/04/03 04:53:46;;;;;;;9.73;2.50;;;10.60;48.50;;;;;;1485042;40;20063;-56
2021/04/03 04:55:08;;;;;;;9.20;2.70;;;10.60;48.50;;;;;;1488571;39;20250;-55
2021/04/03 04:56:28;;;;;;;8.77;2.10;;;10.60;48.50;;;;;;1485765;39;20388;-56
2021/04/03 04:57:49;;;;;;;12.27;2.50;;;10.60;48.50;;;;;;1490212;39;20062;-56
2021/04/03 04:59:10;;;;;;;12.15;2.72;;;10.60;48.50;;;;;;1488475;39;20083;-57
2021/04/03 05:00:31;;;;;;;8.23;2.22;;;10.60;48.50;;;;;;1490416;39;20063;-56
2021/04/03 05:01:52;;;;;;;9.20;2.33;;;10.60;48.50;;;;;;1489847;39;20060;-57
2021/04/03 05:03:13;;;;;;;6.72;2.28;;;10.60;48.50;;;;;;1489305;39;20158;-56
2021/04/03 05:04:34;;;;;;;9.45;2.67;;;10.60;48.50;;;;;;1489878;39;20052;-56
2021/04/03 05:05:55;;;;;;;9.23;2.45;;;10.60;48.50;;;;;;1487626;39;20056;-56
2021/04/03 05:07:17;;;;;;;7.55;2.38;;;10.60;48.50;;;;;;1489661;39;20055;-55
2021/04/03 05:08:37;;;;;;;8.48;2.40;;;10.60;48.60;;;;;;1486198;39;20064;-57
2021/04/03 05:09:58;;;;;;;7.25;2.17;;;10.60;48.50;;;;;;1489208;39;20172;-54
2021/04/03 05:11:19;;;;;;;13.43;2.97;;;10.60;48.50;;;;;;1487518;39;20067;-56
2021/04/03 05:12:40;;;;;;;6.80;2.15;;;10.60;48.50;;;;;;1484532;39;20099;-57
2021/04/03 05:14:01;;;;;;;10.25;2.58;;;10.60;48.50;;;;;;1490348;39;20165;-56
2021/04/03 05:15:22;;;;;;;8.02;2.33;;;10.60;48.60;;;;;;1490809;39;20063;-58
2021/04/03 05:16:43;;;;;;;9.10;2.42;;;10.60;48.60;;;;;;1487896;39;20063;-56
2021/04/03 05:18:04;;;;;;;7.97;2.33;;;10.60;48.60;;;;;;1489536;39;20083;-58
2021/04/03 05:19:25;;;;;;;8.02;2.75;;;10.60;48.60;;;;;;1481737;40;20060;-57
2021/04/03 05:20:47;;;;;;;10.05;2.72;;;10.60;48.60;;;;;;1488064;39;20062;-57
2021/04/03 05:22:07;;;;;;;9.13;2.65;;;10.60;48.60;;;;;;1490162;39;20150;-55
2021/04/03 05:23:30;;;;;;;15.90;3.13;;;10.60;48.70;;;;;;1489750;39;20106;-57
2021/04/03 05:24:51;;;;;;;5.30;1.90;;;10.60;48.70;;;;;;1490354;39;20093;-55
2021/04/03 05:26:12;;;;;;;8.27;2.85;;;10.60;48.70;;;;;;1490042;39;20430;-56
2021/04/03 05:27:32;;;;;;;9.18;2.40;;;10.60;48.70;;;;;;1489882;39;20277;-57
2021/04/03 05:28:53;;;;;;;9.73;2.63;;;10.70;48.70;;;;;;1489743;39;20307;-57
2021/04/03 05:30:15;;;;;;;9.77;2.88;;;10.60;48.70;;;;;;1489424;39;20056;-55
2021/04/03 05:31:36;;;;;;;8.45;2.63;;;10.60;48.70;;;;;;1490154;39;20070;-57
2021/04/03 05:32:56;;;;;;;9.52;2.70;;;10.60;48.70;;;;;;1489594;39;20170;-57
2021/04/03 05:34:17;;;;;;;7.57;2.42;;;10.60;48.70;;;;;;1489342;39;20171;-58
2021/04/03 05:35:38;;;;;;;9.18;2.45;;;10.60;48.70;;;;;;1489770;39;20066;-57
2021/04/03 05:36:59;;;;;;;8.82;2.50;;;10.70;48.80;;;;;;1490025;39;20319;-56
2021/04/03 05:38:20;;;;;;;11.75;2.83;;;10.70;48.70;;;;;;1489971;39;20067;-57
2021/04/03 05:39:41;;;;;;;8.68;2.67;;;10.60;48.70;;;;;;1490089;39;20087;-57
2021/04/03 05:41:02;;;;;;;9.77;2.35;;;10.70;48.70;;;;;;1488807;39;20260;-57
2021/04/03 05:42:23;;;;;;;10.10;2.35;;;10.70;48.70;;;;;;1489690;39;20058;-57
2021/04/03 05:43:46;;;;;;;9.48;2.97;;;10.70;48.80;;;;;;1490398;39;20070;-57
2021/04/03 05:45:08;;;;;;;9.23;2.80;;;10.70;48.80;;;;;;1489352;39;20071;-57
2021/04/03 05:46:29;;;;;;;8.48;2.38;;;10.70;48.80;;;;;;1489852;39;20346;-57
2021/04/03 05:47:50;;;;;;;7.78;2.42;;;10.70;48.80;;;;;;1490118;39;20404;-57
2021/04/03 05:49:12;;;;;;;8.57;2.63;;;10.70;48.80;;;;;;1490968;39;20087;-56
2021/04/03 05:50:36;;;;;;;11.75;3.05;;;10.70;49.00;;;;;;1486042;39;20048;-56
2021/04/03 05:51:57;;;;;;;7.85;2.50;;;10.70;49.10;;;;;;1487178;39;20168;-54
2021/04/03 05:53:18;;;;;;;14.07;2.85;;;10.70;49.10;;;;;;1489641;39;20138;-57
2021/04/03 05:54:39;;;;;;;9.05;2.70;;;10.70;49.20;;;;;;1487730;39;20203;-56
2021/04/03 05:56:00;;;;;;;12.13;2.78;;;10.70;49.20;;;;;;1489277;39;20435;-56
2021/04/03 05:57:24;;;;;;;8.77;2.60;;;10.70;49.30;;;;;;1484941;40;20185;-56
2021/04/03 05:58:45;;;;;;;9.35;2.85;;;10.70;49.40;;;;;;1486677;39;20379;-57
2021/04/03 06:00:07;;;;;;;9.35;2.95;;;10.70;49.40;;;;;;1489327;39;20062;-55
2021/04/03 06:01:28;;;;;;;11.40;2.95;;;10.70;49.40;;;;;;1489837;39;20088;-57
2021/04/03 06:02:50;;;;;;;9.95;3.15;;;10.70;49.40;;;;;;1485644;39;20071;-55
2021/04/03 06:04:11;;;;;;;8.50;2.72;;;10.70;49.30;;;;;;1488631;39;20083;-56
2021/04/03 06:05:33;;;;;;;9.77;2.40;;;10.70;49.30;;;;;;1489164;39;20064;-55
2021/04/03 06:06:55;;;;;;;9.43;3.00;;;10.70;49.30;;;;;;1488575;39;20067;-57
2021/04/03 06:08:16;;;;;;;9.38;3.13;;;10.70;49.40;;;;;;1489907;39;20084;-56
2021/04/03 06:09:37;;;;;;;10.30;2.83;;;10.70;49.40;;;;;;1489718;39;20060;-56
2021/04/03 06:11:18;;;;;;;8.07;2.38;;;10.70;49.50;;;;;;1488355;39;20075;-55
2021/04/03 06:12:47;;;;;;;9.40;3.20;;;10.70;49.80;;;;;;1487054;39;20424;-54
2021/04/03 06:14:08;;;;;;;10.50;3.20;;;10.70;49.70;;;;;;1488742;39;20428;-57
2021/04/03 06:15:32;;;;;;;10.75;2.60;;;10.70;49.60;;;;;;1486025;39;20061;-57
2021/04/03 06:16:53;;;;;;;12.00;3.40;;;10.80;49.60;;;;;;1490007;39;20399;-56
2021/04/03 06:18:16;;;;;;;8.85;2.42;;;10.80;49.70;;;;;;1490680;39;20356;-57
2021/04/03 06:19:48;;;;;;;12.73;3.00;;;10.80;49.70;;;;;;1487133;39;20055;-56
2021/04/03 06:21:09;;;;;;;8.55;2.95;;;10.80;50.00;;;;;;1489022;39;20363;-55
2021/04/03 06:22:44;;;;;;;6.72;2.60;;;10.80;49.70;;;;;;1485409;40;20115;-57
2021/04/03 06:24:29;;;;;;;7.72;2.83;;;10.90;50.00;;;;;;1487551;39;20295;-57
2021/04/03 06:25:58;;;;;;;12.85;2.72;;;10.90;49.90;;;;;;1488092;39;20056;-57
2021/04/03 06:27:19;;;;;;;12.50;3.97;;;10.90;49.70;;;;;;1485719;40;20076;-59
2021/04/03 06:28:39;;;;;;;7.35;2.72;;;10.90;49.50;;;;;;1486214;39;20064;-58
2021/04/03 06:30:14;;;;;;;9.13;3.30;;;10.90;49.60;;;;;;1485360;39;20057;-59
2021/04/03 06:31:39;;;;;;;9.48;3.42;;;10.90;49.50;;;;;;1488765;39;21110;-58
2021/04/03 06:33:20;;;;;;;9.45;3.17;;;10.90;49.60;;;;;;1483733;40;20072;-59
2021/04/03 06:34:46;;;;;;;14.98;3.28;;;10.90;49.80;;;;;;1490176;39;20280;-59
2021/04/03 06:36:15;;;;;;;11.32;2.88;;;10.90;49.70;;;;;;1489221;39;20060;-59
2021/04/03 06:37:37;;;;;;;9.88;3.28;;;10.90;49.70;;;;;;1483467;39;20111;-59
2021/04/03 06:38:59;;;;;;;11.40;2.80;;;10.90;49.60;;;;;;1488003;39;20076;-58
2021/04/03 06:40:20;;;;;;;9.60;2.72;;;10.90;49.60;;;;;;1490711;39;20294;-59
2021/04/03 06:41:41;;;;;;;8.70;2.50;;;10.80;49.70;;;;;;1489406;39;20390;-59
2021/04/03 06:43:02;;;;;;;11.93;2.78;;;10.80;49.80;;;;;;1485964;39;20063;-58
2021/04/03 06:44:23;;;;;;;14.60;3.20;;;10.80;50.30;;;;;;1483307;40;20136;-57
2021/04/03 06:45:46;;;;;;;12.95;3.83;;;10.80;50.50;;;;;;1481293;40;20538;-58
2021/04/03 06:47:07;;;;;;;16.45;3.13;;;10.80;50.00;;;;;;1488674;39;20164;-59
2021/04/03 06:48:28;;;;;;;12.27;2.78;;;10.80;50.00;;;;;;1488147;39;20343;-58
2021/04/03 06:49:49;;;;;;;11.60;3.60;;;10.80;50.10;;;;;;1490424;39;20292;-59
2021/04/03 06:51:10;;;;;;;14.25;3.25;;;10.80;50.10;;;;;;1487960;39;20056;-58
2021/04/03 06:52:33;;;;;;;11.35;3.58;;;10.80;50.20;;;;;;1487892;39;20142;-59
2021/04/03 06:53:56;;;;;;;16.48;3.95;;;10.80;50.30;;;;;;1489378;39;20083;-58
2021/04/03 06:55:20;;;;;;;9.52;3.30;;;10.90;50.40;;;;;;1490458;39;20344;-59
2021/04/03 06:56:41;;;;;;;8.52;2.75;;;10.90;50.40;;;;;;1487935;39;20075;-58
2021/04/03 06:58:04;;;;;;;13.65;3.42;;;10.90;50.40;;;;;;1489682;39;20510;-59
2021/04/03 06:59:26;;;;;;;11.18;3.22;;;10.90;50.50;;;;;;1490022;39;20060;-59
2021/04/03 07:00:50;;;;;;;13.20;3.53;;;10.90;50.50;;;;;;1489470;39;20056;-59
2021/04/03 07:02:13;;;;;;;9.68;2.67;;;10.90;50.60;;;;;;1489475;39;20064;-59
2021/04/03 07:03:38;;;;;;;11.73;2.90;;;10.90;50.50;;;;;;1490576;39;20070;-58
2021/04/03 07:05:01;;;;;;;13.20;3.22;;;10.90;50.50;;;;;;1488950;39;20059;-59
2021/04/03 07:06:24;;;;;;;8.45;2.65;;;11.00;50.60;;;;;;1488505;39;20447;-59
2021/04/03 07:07:45;;;;;;;8.90;3.03;;;11.00;50.60;;;;;;1489137;39;20696;-58
2021/04/03 07:09:08;;;;;;;10.30;3.00;;;11.00;50.70;;;;;;1488852;39;20154;-60
2021/04/03 07:10:29;;;;;;;14.75;3.33;;;11.10;50.80;;;;;;1489562;39;20064;-59